Time;durP1;ratioP1;P1;durP2;ratioP2;P2;SDS_P1;SDS_P2;PMS_P1;PMS_P2;Temp;Humidity;BMP_temperature;BMP_pressure;BME280_temperature;BME280_humidity;BME280_pressure;Samples;Min_cycle;Max_cycle;Signal;HPM_P1;HPM_P2
2021/12/03 12:36:54;;;;;;;11.63;4.93;;;;;;;7.70;64.96;100544.75;5047552;28;20052;-75
2021/12/03 12:39:53;;;;;;;13.30;5.10;;;;;;;7.69;65.64;100530.03;5047512;28;20049;-76
2021/12/03 12:46:34;;;;;;;17.83;5.65;;;;;;;7.72;65.58;100516.25;5048199;28;20036;-75
2021/12/03 16:14:33;;;;;;;14.05;9.98;;;;;;;6.67;78.04;100361.19;5011166;28;20522;-57
2021/12/03 16:22:45;;;;;;;13.20;9.60;;;;;;;7.19;75.18;100367.41;4964863;28;20056;-58
2021/12/03 16:46:28;;;;;;;26.95;17.83;;;;;;;7.30;74.63;100374.53;4948870;28;20470;-59
2021/12/03 16:51:51;;;;;;;17.80;11.60;;;;;;;7.37;74.35;100372.06;4940610;28;20042;-61
2021/12/03 16:54:26;;;;;;;14.20;10.60;;;;;;;7.44;73.92;100366.97;4949892;28;20050;-59
2021/12/03 16:56:53;;;;;;;21.30;10.88;;;;;;;7.40;74.12;100364.31;4942213;28;20116;-58
2021/12/03 16:59:20;;;;;;;19.13;10.55;;;;;;;7.38;74.30;100345.28;4944324;28;20560;-58
2021/12/03 17:09:58;;;;;;;17.25;11.48;;;;;;;7.40;74.41;100321.09;4937212;28;20805;-60
2021/12/03 17:26:48;;;;;;;19.15;13.25;;;;;;;7.52;74.02;100297.09;4949372;28;20632;-59
2021/12/03 17:44:54;;;;;;;24.70;16.25;;;;;;;7.60;73.43;100306.75;4955134;28;20033;-59
2021/12/03 17:58:13;;;;;;;26.40;16.73;;;;;;;7.62;73.54;100301.59;4957974;28;20084;-59
2021/12/03 18:00:48;;;;;;;27.65;16.73;;;;;;;7.53;73.81;100291.94;4954777;28;20345;-59
2021/12/03 18:06:57;;;;;;;32.88;17.98;;;;;;;7.62;73.89;100279.09;4932935;28;20049;-61
2021/12/03 18:09:14;;;;;;;32.83;19.27;;;;;;;7.57;73.98;100296.31;4954163;28;20061;-59
2021/12/03 18:12:10;;;;;;;38.53;20.65;;;;;;;7.49;74.20;100282.38;4948895;28;22131;-59
2021/12/03 18:49:57;;;;;;;36.75;19.88;;;;;;;7.35;75.59;100294.22;4945933;28;20116;-57
2021/12/03 18:55:35;;;;;;;33.88;18.58;;;;;;;7.34;75.52;100308.91;4951423;28;20049;-60
2021/12/03 18:58:03;;;;;;;37.40;19.20;;;;;;;7.28;75.78;100314.00;4941487;28;20394;-58
2021/12/03 19:00:31;;;;;;;37.78;19.80;;;;;;;7.38;75.69;100307.22;4953790;28;20297;-60
2021/12/03 19:03:00;;;;;;;36.45;18.73;;;;;;;7.45;75.55;100310.81;4951115;28;20073;-59
2021/12/03 19:08:14;;;;;;;33.67;18.73;;;;;;;7.42;75.47;100300.41;4953456;28;20093;-62
2021/12/03 19:10:46;;;;;;;34.17;18.88;;;;;;;7.43;75.58;100297.84;4956728;28;20037;-60
2021/12/03 19:13:16;;;;;;;32.67;17.98;;;;;;;7.38;75.87;100294.25;4952982;28;20105;-57
2021/12/03 19:15:43;;;;;;;34.28;18.27;;;;;;;7.38;75.76;100277.88;4950692;28;20115;-59
2021/12/03 19:18:09;;;;;;;33.75;17.55;;;;;;;7.37;75.65;100268.34;4951399;28;20073;-59
2021/12/03 19:20:38;;;;;;;41.70;24.35;;;;;;;7.39;75.72;100270.09;4937520;28;20030;-59
2021/12/03 19:23:04;;;;;;;32.85;17.58;;;;;;;7.40;75.88;100264.06;4958078;28;20513;-59
2021/12/03 19:25:29;;;;;;;31.27;16.75;;;;;;;7.40;75.67;100260.59;4951180;28;20456;-59
2021/12/03 19:27:55;;;;;;;33.72;18.65;;;;;;;7.43;75.50;100245.09;4955860;28;20132;-59
2021/12/03 19:30:20;;;;;;;30.13;15.88;;;;;;;7.40;75.63;100251.09;4951845;28;20039;-60
2021/12/03 19:32:46;;;;;;;33.22;18.73;;;;;;;7.37;75.45;100257.97;4951436;28;20054;-59
2021/12/03 19:35:11;;;;;;;28.77;15.63;;;;;;;7.37;75.94;100265.75;4954590;28;20053;-59
2021/12/03 19:37:37;;;;;;;30.65;17.33;;;;;;;7.35;75.83;100263.13;4927062;28;21433;-59
2021/12/03 19:40:07;;;;;;;42.15;22.92;;;;;;;7.33;75.97;100265.69;4953795;28;20065;-59
2021/12/03 19:42:38;;;;;;;25.42;14.98;;;;;;;7.36;75.75;100261.41;4956075;28;20457;-58
2021/12/03 19:45:07;;;;;;;28.45;15.02;;;;;;;7.33;75.52;100259.59;4949383;28;20489;-59
2021/12/03 19:50:28;;;;;;;28.33;15.18;;;;;;;7.37;76.09;100258.84;4953152;28;20832;-61
2021/12/03 19:53:02;;;;;;;29.30;15.27;;;;;;;7.37;76.00;100252.78;4954805;28;20046;-62
2021/12/03 19:55:28;;;;;;;32.13;16.45;;;;;;;7.36;75.78;100251.03;4946460;28;20365;-58
2021/12/03 19:57:53;;;;;;;26.35;14.70;;;;;;;7.33;75.83;100251.84;4951533;28;20309;-59
2021/12/03 20:00:19;;;;;;;26.27;14.75;;;;;;;7.32;75.81;100250.97;4956029;28;20573;-57
2021/12/03 20:02:45;;;;;;;34.55;16.60;;;;;;;7.39;75.60;100245.88;4929426;28;20535;-59
2021/12/03 20:05:10;;;;;;;26.77;15.65;;;;;;;7.39;76.04;100238.09;4960118;28;20046;-59
2021/12/03 20:07:36;;;;;;;32.20;18.92;;;;;;;7.40;75.92;100229.47;4931709;28;20467;-59
2021/12/03 20:10:08;;;;;;;39.28;24.55;;;;;;;7.39;75.68;100238.09;4953721;28;20050;-60
2021/12/03 20:12:34;;;;;;;33.65;18.85;;;;;;;7.34;75.59;100222.47;4950114;28;20055;-60
2021/12/03 20:15:02;;;;;;;23.30;13.45;;;;;;;7.38;75.72;100226.00;4955322;28;20055;-60
2021/12/03 20:19:57;;;;;;;24.50;14.70;;;;;;;7.40;75.66;100232.94;4958804;28;20409;-59
2021/12/03 20:27:25;;;;;;;24.90;13.45;;;;;;;7.44;75.31;100228.69;4945642;28;20046;-59
2021/12/03 20:29:57;;;;;;;25.92;14.52;;;;;;;7.43;75.75;100221.75;4956629;28;20038;-59
2021/12/03 20:35:10;;;;;;;25.67;14.68;;;;;;;7.40;75.39;100214.78;4952824;28;20581;-58
2021/12/03 20:37:46;;;;;;;24.67;14.98;;;;;;;7.36;75.64;100204.34;4934971;28;20876;-58
2021/12/03 20:40:34;;;;;;;23.65;13.85;;;;;;;7.40;75.55;100198.34;4955262;28;20619;-58
2021/12/03 20:51:37;;;;;;;24.73;14.07;;;;;;;7.37;75.72;100203.50;4877066;29;20052;-61
2021/12/03 20:54:19;;;;;;;24.52;14.32;;;;;;;7.38;75.55;100190.53;4953491;28;20042;-59
2021/12/03 21:10:15;;;;;;;23.00;13.80;;;;;;;7.46;75.34;100195.84;4957312;28;20061;-59
2021/12/03 21:12:44;;;;;;;25.35;13.93;;;;;;;7.46;75.39;100195.84;4942220;28;20348;-59
2021/12/03 21:15:16;;;;;;;24.00;14.25;;;;;;;7.46;75.61;100203.63;4955905;28;20053;-60
2021/12/03 21:22:44;;;;;;;26.45;14.93;;;;;;;7.43;75.65;100195.81;4953364;28;20509;-59
2021/12/03 21:25:12;;;;;;;25.70;14.65;;;;;;;7.51;75.73;100196.78;4953406;28;20038;-60
2021/12/03 21:27:41;;;;;;;24.15;15.02;;;;;;;7.46;75.53;100194.13;4941682;28;20535;-59
2021/12/03 21:33:03;;;;;;;24.02;15.13;;;;;;;7.44;75.62;100201.00;4917005;28;20147;-60
2021/12/03 21:43:16;;;;;;;25.92;15.27;;;;;;;7.50;75.57;100189.88;4935285;28;20043;-59
2021/12/03 21:45:42;;;;;;;26.63;16.58;;;;;;;7.54;75.44;100192.53;4948122;28;20533;-59
2021/12/03 21:48:07;;;;;;;29.95;16.63;;;;;;;7.50;75.19;100195.06;4956236;28;20511;-59
2021/12/03 21:50:32;;;;;;;29.15;16.15;;;;;;;7.45;75.74;100192.38;4957520;28;20546;-58
2021/12/03 21:52:58;;;;;;;28.52;16.25;;;;;;;7.49;75.67;100189.00;4940374;28;20058;-59
2021/12/03 21:55:25;;;;;;;28.88;16.45;;;;;;;7.54;75.53;100183.88;4949969;28;20061;-59
2021/12/03 21:57:51;;;;;;;29.38;17.00;;;;;;;7.50;75.44;100184.69;4955242;28;20046;-59
2021/12/03 22:00:16;;;;;;;29.90;17.80;;;;;;;7.58;75.21;100180.47;4955009;28;20042;-59
2021/12/03 22:02:42;;;;;;;34.50;19.73;;;;;;;7.57;75.25;100174.41;4942664;28;20565;-60
2021/12/03 22:05:08;;;;;;;30.88;18.15;;;;;;;7.57;75.57;100179.59;4957602;28;20070;-60
2021/12/03 22:07:33;;;;;;;28.95;16.92;;;;;;;7.56;75.61;100164.88;4951449;28;20251;-60
2021/12/03 22:09:59;;;;;;;27.98;16.27;;;;;;;7.56;75.34;100169.22;4958815;28;20482;-59
2021/12/03 22:12:24;;;;;;;28.33;16.50;;;;;;;7.53;75.61;100161.38;4957786;28;20051;-60
2021/12/03 22:14:49;;;;;;;29.20;16.58;;;;;;;7.60;75.60;100155.44;4958440;28;20456;-59
2021/12/03 22:17:15;;;;;;;28.63;16.48;;;;;;;7.58;75.44;100151.94;4951892;28;20046;-60
2021/12/03 22:19:40;;;;;;;30.00;16.52;;;;;;;7.63;75.43;100145.97;4945717;28;20476;-60
2021/12/03 22:22:08;;;;;;;29.05;16.98;;;;;;;7.60;75.52;100135.56;4961379;28;20154;-59
2021/12/03 22:24:37;;;;;;;28.30;16.70;;;;;;;7.65;75.50;100135.59;4951066;28;20046;-59
2021/12/03 22:27:04;;;;;;;30.50;16.58;;;;;;;7.60;75.24;100127.78;4940805;28;20046;-59
2021/12/03 22:29:30;;;;;;;30.35;16.90;;;;;;;7.65;75.05;100128.69;4946986;28;20156;-59
2021/12/03 22:31:55;;;;;;;29.02;16.30;;;;;;;7.67;75.47;100126.13;4939900;28;20501;-59
2021/12/03 22:34:20;;;;;;;30.52;16.83;;;;;;;7.67;74.90;100126.13;4959821;28;20383;-60
2021/12/03 22:36:46;;;;;;;28.95;16.17;;;;;;;7.67;75.23;100124.41;4960818;28;20732;-60
2021/12/03 22:39:11;;;;;;;28.52;16.52;;;;;;;7.66;75.45;100121.78;4958973;28;20042;-59
2021/12/03 22:41:39;;;;;;;30.27;16.42;;;;;;;7.66;75.16;100119.19;4951226;28;20201;-59
2021/12/03 22:44:05;;;;;;;31.05;17.17;;;;;;;7.59;75.54;100114.78;4949967;28;20106;-61
2021/12/03 22:46:40;;;;;;;34.03;17.15;;;;;;;7.64;75.26;100110.50;4955242;28;20585;-59
2021/12/03 22:51:56;;;;;;;32.25;16.90;;;;;;;7.62;75.37;100110.47;4946050;28;20048;-59
2021/12/03 22:54:21;;;;;;;39.65;21.08;;;;;;;7.62;75.47;100107.06;4952367;28;20054;-59
2021/12/03 22:56:47;;;;;;;33.63;17.95;;;;;;;7.61;75.83;100108.78;4960346;28;20092;-57
2021/12/03 22:59:15;;;;;;;31.80;17.45;;;;;;;7.63;75.52;100100.97;4956054;28;20046;-59
2021/12/03 23:01:40;;;;;;;33.13;17.48;;;;;;;7.63;75.45;100093.19;4954439;28;22737;-57
2021/12/03 23:04:06;;;;;;;38.55;19.27;;;;;;;7.62;75.77;100097.50;4938047;28;20035;-59
2021/12/03 23:06:33;;;;;;;35.83;18.10;;;;;;;7.62;75.73;100088.88;4938527;28;20041;-59
2021/12/03 23:09:02;;;;;;;32.35;16.85;;;;;;;7.70;75.36;100084.66;4954238;28;20042;-59
2021/12/03 23:11:27;;;;;;;36.03;18.65;;;;;;;7.64;75.31;100077.66;4925613;28;20303;-60
2021/12/03 23:13:53;;;;;;;36.38;18.67;;;;;;;7.65;75.61;100068.16;4956370;28;20074;-58
2021/12/03 23:16:18;;;;;;;37.15;18.23;;;;;;;7.60;75.34;100067.25;4958783;28;20038;-58
2021/12/03 23:18:44;;;;;;;39.85;18.70;;;;;;;7.63;75.65;100065.53;4943055;28;20105;-59
2021/12/03 23:21:11;;;;;;;40.30;19.10;;;;;;;7.64;75.63;100074.19;4955497;28;20048;-59
2021/12/03 23:23:38;;;;;;;39.28;20.02;;;;;;;7.62;75.48;100068.97;4931792;28;20120;-60
2021/12/03 23:26:08;;;;;;;45.88;20.52;;;;;;;7.61;75.60;100067.25;4956875;28;20390;-59
2021/12/03 23:28:35;;;;;;;42.80;19.85;;;;;;;7.53;76.05;100061.09;4948396;28;20038;-57
2021/12/03 23:31:01;;;;;;;41.67;20.27;;;;;;;7.63;75.47;100065.53;4959592;28;20042;-58
2021/12/03 23:33:29;;;;;;;46.92;21.67;;;;;;;7.61;75.41;100063.78;4947907;28;20572;-59
2021/12/03 23:35:56;;;;;;;47.67;20.75;;;;;;;7.62;75.36;100068.13;4957414;28;20046;-59
2021/12/03 23:38:21;;;;;;;44.00;20.83;;;;;;;7.65;75.55;100066.44;4932635;28;20047;-59
2021/12/03 23:40:47;;;;;;;48.20;22.27;;;;;;;7.67;75.57;100066.47;4952676;28;20651;-59
2021/12/03 23:43:12;;;;;;;47.47;21.73;;;;;;;7.65;75.68;100070.75;4953375;28;20042;-58
2021/12/03 23:45:37;;;;;;;46.83;22.35;;;;;;;7.67;75.62;100074.25;4951103;28;22321;-59
2021/12/03 23:48:07;;;;;;;45.58;21.45;;;;;;;7.71;75.69;100065.63;4954400;28;20480;-59
2021/12/03 23:50:34;;;;;;;50.85;21.70;;;;;;;7.69;75.80;100062.16;4941187;28;20133;-59
2021/12/03 23:52:59;;;;;;;51.35;22.10;;;;;;;7.68;75.69;100056.09;4956210;28;20604;-59
2021/12/03 23:55:25;;;;;;;50.53;21.80;;;;;;;7.74;75.68;100055.31;4950703;28;20043;-59
2021/12/03 23:57:51;;;;;;;48.08;21.83;;;;;;;7.75;75.64;100049.25;4953972;28;20332;-59
